createdAt,value
2017-07-23T00:00:21.525Z,60.34
2017-07-23T00:02:49.120Z,60.94
2017-07-23T00:05:16.807Z,62.36
2017-07-23T00:07:45.690Z,62.35
2017-07-23T00:10:14.598Z,62.21
2017-07-23T00:12:43.056Z,62.12
2017-07-23T00:15:11.538Z,63.04
2017-07-23T00:17:39.915Z,63.87
2017-07-23T00:20:07.615Z,63.72
2017-07-23T00:22:35.220Z,64.56
2017-07-23T00:25:02.953Z,64.57
2017-07-23T00:27:30.547Z,63.64
2017-07-23T00:29:58.295Z,64.89
2017-07-23T00:33:20.156Z,65.05
2017-07-23T00:36:31.263Z,66.38
2017-07-23T00:39:03.990Z,66.94
2017-07-23T00:41:31.626Z,68.57
2017-07-23T00:43:59.228Z,67.02
2017-07-23T00:46:26.856Z,68.67
2017-07-23T00:48:54.562Z,67.39
2017-07-23T00:51:22.218Z,70.70
2017-07-23T00:53:50.034Z,72.79
2017-07-23T00:56:17.706Z,73.62
2017-07-23T00:58:45.871Z,76.16
2017-07-23T01:01:14.167Z,76.66
2017-07-23T01:03:41.856Z,76.80
2017-07-23T01:06:09.620Z,74.56
2017-07-23T01:08:37.346Z,73.99
2017-07-23T01:11:06.391Z,73.86
2017-07-23T01:13:34.063Z,72.26
2017-07-23T01:16:01.719Z,71.47
2017-07-23T01:18:29.316Z,72.49
2017-07-23T01:20:57.031Z,72.45
2017-07-23T01:23:24.695Z,70.15
2017-07-23T01:25:52.660Z,72.03
2017-07-23T01:28:21.752Z,72.79
2017-07-23T01:30:50.451Z,73.32
2017-07-23T01:33:18.154Z,71.38
2017-07-23T01:35:46.417Z,68.25
2017-07-23T01:38:14.142Z,68.66
2017-07-23T01:40:41.763Z,67.59
2017-07-23T01:43:10.980Z,67.72
2017-07-23T01:45:40.621Z,66.90
2017-07-23T01:48:08.897Z,67.08
2017-07-23T01:50:36.644Z,65.51
2017-07-23T01:53:04.769Z,65.73
2017-07-23T01:55:33.241Z,64.51
2017-07-23T01:58:01.009Z,64.01
2017-07-23T02:00:29.321Z,65.64
2017-07-23T02:02:56.963Z,67.23
2017-07-23T02:05:24.595Z,67.67
2017-07-23T02:07:53.043Z,68.00
2017-07-23T02:10:20.891Z,67.11
2017-07-23T02:12:49.321Z,67.50
2017-07-23T02:15:17.139Z,67.77
2017-07-23T02:17:45.042Z,66.85
2017-07-23T02:20:12.777Z,66.43
2017-07-23T02:22:40.564Z,67.26
2017-07-23T02:25:08.384Z,66.87
2017-07-23T02:27:36.409Z,66.80
2017-07-23T02:30:06.771Z,66.64
2017-07-23T02:32:34.920Z,66.71
2017-07-23T02:35:02.973Z,66.60
2017-07-23T02:37:46.512Z,65.99
2017-07-23T02:40:16.427Z,66.06
2017-07-23T02:42:44.987Z,66.17
2017-07-23T02:45:13.033Z,66.71
2017-07-23T02:47:40.746Z,67.49
2017-07-23T02:50:08.697Z,66.36
2017-07-23T02:52:37.366Z,66.13
2017-07-23T02:55:05.725Z,66.65
2017-07-23T02:57:33.447Z,66.91
2017-07-23T03:00:01.213Z,67.51
2017-07-23T03:02:28.907Z,67.70
2017-07-23T03:04:56.711Z,68.23
2017-07-23T03:07:24.499Z,68.10
2017-07-23T03:09:53.248Z,67.28
2017-07-23T03:12:20.929Z,67.34
2017-07-23T03:14:48.728Z,67.13
2017-07-23T03:17:16.660Z,66.19
2017-07-23T03:19:44.267Z,66.15
2017-07-23T03:22:12.602Z,65.78
2017-07-23T03:24:40.233Z,66.46
2017-07-23T03:27:07.867Z,65.85
2017-07-23T03:29:36.244Z,65.65
2017-07-23T03:32:03.980Z,64.96
2017-07-23T03:34:31.737Z,66.19
2017-07-23T03:37:00.254Z,66.66
2017-07-23T03:39:28.010Z,66.80
2017-07-23T03:41:56.213Z,66.77
2017-07-23T03:44:23.897Z,66.75
2017-07-23T03:46:51.633Z,67.28
2017-07-23T03:49:19.368Z,67.64
2017-07-23T03:51:47.065Z,68.87
2017-07-23T03:54:14.788Z,68.28
2017-07-23T03:56:42.387Z,68.62
2017-07-23T03:59:10.012Z,68.53
2017-07-23T04:01:37.725Z,68.64
2017-07-23T04:04:05.363Z,68.81
2017-07-23T04:06:33.073Z,68.56
2017-07-23T04:09:00.810Z,67.99
2017-07-23T04:11:28.488Z,67.60
2017-07-23T04:13:56.186Z,67.57
2017-07-23T04:16:23.943Z,67.44
2017-07-23T04:18:51.901Z,67.48
2017-07-23T04:21:19.738Z,66.87
2017-07-23T04:23:48.203Z,64.66
2017-07-23T04:26:15.999Z,62.50
2017-07-23T04:32:05.059Z,60.24
2017-07-23T04:34:34.136Z,59.91
2017-07-23T04:37:01.896Z,58.98
2017-07-23T04:39:32.100Z,58.64
2017-07-23T04:41:59.916Z,59.56
2017-07-23T04:44:28.386Z,59.93
2017-07-23T04:46:56.111Z,59.44
2017-07-23T04:49:24.373Z,60.39
2017-07-23T04:51:52.812Z,60.06
2017-07-23T04:54:20.475Z,59.35
2017-07-23T04:56:48.181Z,58.23
2017-07-23T04:59:16.050Z,58.32
2017-07-23T05:01:44.053Z,58.55
2017-07-23T05:04:11.758Z,58.17
2017-07-23T05:06:40.357Z,57.75
2017-07-23T05:09:08.000Z,57.56
2017-07-23T05:11:35.625Z,56.94
2017-07-23T05:14:03.280Z,56.22
2017-07-23T05:16:31.935Z,55.77
2017-07-23T05:19:00.072Z,55.38
2017-07-23T05:21:27.833Z,55.93
2017-07-23T05:23:56.279Z,55.62
2017-07-23T05:26:23.911Z,55.13
2017-07-23T05:28:51.623Z,54.90
2017-07-23T05:31:19.612Z,54.97
2017-07-23T05:33:47.293Z,55.67
2017-07-23T05:36:15.091Z,54.68
2017-07-23T05:38:42.777Z,54.59
2017-07-23T05:41:11.507Z,54.51
2017-07-23T05:43:39.945Z,54.03
2017-07-23T05:46:09.555Z,54.20
2017-07-23T05:48:37.250Z,54.04
2017-07-23T05:51:04.985Z,52.83
2017-07-23T05:53:32.630Z,52.02
2017-07-23T05:56:00.784Z,50.40
2017-07-23T05:58:28.384Z,50.50
2017-07-23T06:00:56.870Z,49.66
2017-07-23T06:03:24.521Z,48.43
2017-07-23T06:05:53.341Z,47.75
2017-07-23T06:08:22.524Z,47.87
2017-07-23T06:10:50.393Z,47.59
2017-07-23T06:13:18.762Z,46.40
2017-07-23T06:15:46.534Z,46.12
2017-07-23T06:18:14.303Z,46.58
2017-07-23T06:20:42.807Z,45.68
2017-07-23T06:23:12.172Z,44.65
2017-07-23T06:25:39.842Z,45.21
2017-07-23T06:28:07.491Z,44.16
2017-07-23T06:30:36.146Z,44.56
2017-07-23T06:33:03.778Z,43.72
2017-07-23T06:35:31.594Z,44.00
2017-07-23T06:37:59.295Z,44.37
2017-07-23T06:40:27.796Z,43.18
2017-07-23T06:42:55.894Z,42.32
2017-07-23T06:45:23.538Z,41.89
2017-07-23T06:47:51.333Z,41.69
2017-07-23T06:50:19.951Z,41.98
2017-07-23T06:52:47.652Z,42.41
2017-07-23T06:55:16.233Z,42.74
2017-07-23T06:57:43.809Z,41.63
2017-07-23T07:00:11.487Z,40.75
2017-07-23T07:02:39.144Z,40.77
2017-07-23T07:05:06.984Z,40.61
2017-07-23T07:07:36.139Z,39.97
2017-07-23T07:10:03.816Z,39.00
2017-07-23T07:12:31.660Z,39.32
2017-07-23T07:14:59.691Z,39.30
2017-07-23T07:17:27.590Z,38.28
2017-07-23T07:19:55.261Z,38.55
2017-07-23T07:22:22.871Z,38.23
2017-07-23T07:24:50.676Z,38.30
2017-07-23T07:27:18.533Z,38.02
2017-07-23T07:29:46.777Z,38.45
2017-07-23T07:32:14.478Z,38.29
2017-07-23T07:34:42.240Z,37.45
2017-07-23T07:37:10.542Z,36.81
2017-07-23T07:39:38.825Z,35.97
2017-07-23T07:42:07.187Z,37.06
2017-07-23T07:44:35.650Z,36.29
2017-07-23T07:47:03.290Z,36.50
2017-07-23T07:49:31.576Z,35.88
2017-07-23T07:52:03.310Z,35.35
2017-07-23T07:54:31.605Z,36.02
2017-07-23T07:56:59.556Z,36.49
2017-07-23T07:59:27.194Z,35.73
2017-07-23T08:01:55.011Z,35.53
2017-07-23T08:04:23.725Z,35.13
2017-07-23T08:06:53.071Z,35.40
2017-07-23T08:09:20.896Z,35.64
2017-07-23T08:11:48.524Z,34.20
2017-07-23T08:14:17.400Z,34.60
2017-07-23T08:16:46.893Z,34.89
2017-07-23T08:19:14.616Z,35.65
2017-07-23T08:21:42.204Z,36.18
2017-07-23T08:24:09.857Z,37.05
2017-07-23T08:26:37.440Z,35.14
2017-07-23T08:29:05.086Z,35.42
2017-07-23T08:31:32.740Z,35.56
2017-07-23T08:34:00.559Z,36.26
2017-07-23T08:36:28.146Z,36.19
2017-07-23T08:38:56.098Z,36.22
2017-07-23T08:41:23.821Z,36.43
2017-07-23T08:43:51.617Z,36.60
2017-07-23T08:46:19.620Z,36.83
2017-07-23T08:48:47.306Z,36.36
2017-07-23T08:51:15.350Z,35.79
2017-07-23T08:53:43.443Z,34.88
2017-07-23T08:56:11.104Z,34.48
2017-07-23T08:58:39.074Z,33.00
2017-07-23T09:01:06.730Z,33.18
2017-07-23T09:03:34.344Z,32.29
2017-07-23T09:06:03.224Z,32.38
2017-07-23T09:08:31.819Z,34.83
2017-07-23T09:10:59.469Z,34.41
2017-07-23T09:13:27.050Z,33.76
2017-07-23T09:15:54.728Z,34.13
2017-07-23T09:18:22.362Z,33.92
2017-07-23T09:20:50.262Z,33.68
2017-07-23T09:23:17.868Z,33.11
2017-07-23T09:25:46.315Z,33.06
2017-07-23T09:28:13.983Z,33.43
2017-07-23T09:30:41.697Z,33.56
2017-07-23T09:33:09.330Z,32.63
2017-07-23T09:35:36.947Z,32.15
2017-07-23T09:38:04.591Z,31.87
2017-07-23T09:40:32.221Z,32.28
2017-07-23T09:43:00.722Z,32.78
2017-07-23T09:45:28.394Z,32.75
2017-07-23T09:47:56.094Z,32.79
2017-07-23T09:50:23.740Z,31.98
2017-07-23T09:52:51.377Z,30.41
2017-07-23T09:55:19.042Z,31.03
2017-07-23T09:57:46.663Z,31.31
2017-07-23T10:00:14.406Z,29.13
2017-07-23T10:02:42.077Z,29.30
2017-07-23T10:05:10.957Z,29.21
2017-07-23T10:07:38.678Z,29.04
2017-07-23T10:10:06.299Z,28.11
2017-07-23T10:12:35.260Z,26.68
2017-07-23T10:15:05.005Z,26.56
2017-07-23T10:17:35.779Z,26.72
2017-07-23T10:20:07.763Z,27.16
2017-07-23T10:22:37.076Z,25.57
2017-07-23T10:25:04.770Z,25.97
2017-07-23T10:27:32.411Z,25.11
2017-07-23T10:30:00.708Z,24.78
2017-07-23T10:32:28.358Z,24.47
2017-07-23T10:34:56.079Z,24.86
2017-07-23T10:37:24.274Z,25.19
2017-07-23T10:39:52.520Z,24.68
2017-07-23T10:42:20.124Z,24.00
2017-07-23T10:44:47.942Z,24.22
2017-07-23T10:47:15.583Z,25.18
2017-07-23T10:49:43.372Z,24.89
2017-07-23T10:52:11.021Z,24.09
2017-07-23T10:54:38.641Z,24.06
2017-07-23T10:57:06.419Z,23.67
2017-07-23T10:59:34.116Z,23.92
2017-07-23T11:02:01.738Z,24.27
2017-07-23T11:04:30.066Z,24.34
2017-07-23T11:06:57.702Z,23.83
2017-07-23T11:09:25.399Z,22.14
2017-07-23T11:11:54.810Z,22.81
2017-07-23T11:14:22.646Z,22.45
2017-07-23T11:16:50.732Z,22.56
2017-07-23T11:19:18.408Z,22.95
2017-07-23T11:21:45.999Z,23.26
2017-07-23T11:24:15.339Z,23.11
2017-07-23T11:26:42.957Z,22.66
2017-07-23T11:29:10.622Z,22.35
2017-07-23T11:31:38.246Z,23.03
2017-07-23T11:34:05.923Z,23.19
2017-07-23T11:36:33.492Z,22.81
2017-07-23T11:39:01.574Z,23.36
2017-07-23T11:41:29.194Z,22.87
2017-07-23T11:43:57.531Z,22.37
2017-07-23T11:46:26.232Z,22.68
2017-07-23T11:48:53.781Z,22.58
2017-07-23T11:51:23.530Z,23.07
2017-07-23T11:53:51.165Z,23.41
2017-07-23T11:56:19.570Z,23.11
2017-07-23T11:58:47.493Z,23.58
2017-07-23T12:01:15.552Z,22.48
2017-07-23T12:03:43.132Z,22.35
2017-07-23T12:06:11.716Z,22.26
2017-07-23T12:08:39.347Z,22.42
2017-07-23T12:11:07.010Z,22.44
2017-07-23T12:13:35.535Z,22.23
2017-07-23T12:16:03.400Z,22.42
2017-07-23T12:18:30.995Z,22.46
2017-07-23T12:20:58.580Z,23.29
2017-07-23T12:23:26.240Z,22.81
2017-07-23T12:25:53.913Z,23.11
2017-07-23T12:28:21.648Z,23.94
2017-07-23T12:30:49.334Z,23.13
2017-07-23T12:33:17.183Z,22.52
2017-07-23T12:35:44.809Z,22.12
2017-07-23T12:38:12.444Z,22.79
2017-07-23T12:40:40.428Z,22.05
2017-07-23T12:43:08.082Z,22.12
2017-07-23T12:45:37.298Z,22.21
2017-07-23T12:48:05.212Z,21.66
2017-07-23T12:50:33.073Z,21.46
2017-07-23T12:53:00.698Z,21.44
2017-07-23T12:55:28.331Z,21.81
2017-07-23T12:57:55.937Z,22.50
2017-07-23T13:00:23.536Z,23.94
2017-07-23T13:02:51.119Z,23.84
2017-07-23T13:05:18.881Z,23.92
2017-07-23T13:07:46.495Z,23.59
2017-07-23T13:10:14.886Z,23.63
2017-07-23T13:12:42.657Z,23.68
2017-07-23T13:15:10.543Z,23.51
2017-07-23T13:17:38.314Z,23.44
2017-07-23T13:20:06.037Z,23.37
2017-07-23T13:22:34.015Z,23.33
2017-07-23T13:25:01.640Z,23.17
2017-07-23T13:27:29.295Z,22.91
2017-07-23T13:29:56.956Z,22.91
2017-07-23T13:32:24.633Z,23.37
2017-07-23T13:34:52.236Z,23.39
2017-07-23T13:37:19.819Z,23.40
2017-07-23T13:39:48.117Z,24.07
2017-07-23T13:42:15.939Z,23.33
2017-07-23T13:44:43.736Z,22.76
2017-07-23T13:47:11.322Z,22.24
2017-07-23T13:49:39.107Z,22.57
2017-07-23T13:52:06.726Z,22.98
2017-07-23T13:54:34.398Z,22.95
2017-07-23T13:57:02.310Z,23.18
2017-07-23T13:59:29.884Z,23.31
2017-07-23T14:01:57.528Z,22.03
2017-07-23T14:04:25.131Z,21.49
2017-07-23T14:06:52.732Z,21.14
2017-07-23T14:09:20.331Z,20.71
2017-07-23T14:11:47.879Z,20.74
2017-07-23T14:14:15.474Z,20.63
2017-07-23T14:16:43.115Z,20.49
2017-07-23T14:19:10.667Z,20.49
2017-07-23T14:21:38.241Z,20.10
2017-07-23T14:24:05.871Z,20.21
2017-07-23T14:26:33.566Z,19.13
2017-07-23T14:29:01.252Z,19.52
2017-07-23T14:31:28.930Z,19.55
2017-07-23T14:33:56.739Z,19.73
2017-07-23T14:36:24.306Z,20.41
2017-07-23T14:38:52.142Z,21.74
2017-07-23T14:41:19.931Z,21.85
2017-07-23T14:43:48.029Z,21.99
2017-07-23T14:46:16.264Z,21.33
2017-07-23T14:48:43.847Z,21.33
2017-07-23T14:51:11.440Z,22.91
2017-07-23T14:53:39.041Z,22.47
2017-07-23T14:56:06.623Z,22.43
2017-07-23T14:58:34.196Z,22.23
2017-07-23T15:01:01.811Z,20.86
2017-07-23T15:03:30.112Z,21.82
2017-07-23T15:05:58.650Z,22.85
2017-07-23T15:08:27.247Z,22.83
2017-07-23T15:10:54.893Z,23.18
2017-07-23T15:13:23.476Z,23.87
2017-07-23T15:15:51.168Z,24.27
2017-07-23T15:18:19.225Z,24.94
2017-07-23T15:20:46.842Z,26.28
2017-07-23T15:23:14.758Z,26.30
2017-07-23T15:25:42.734Z,26.66
2017-07-23T15:28:11.039Z,27.13
2017-07-23T15:30:39.613Z,27.56
2017-07-23T15:33:07.292Z,27.81
2017-07-23T15:35:35.021Z,28.24
2017-07-23T15:38:03.687Z,28.10
2017-07-23T15:40:31.288Z,28.52
2017-07-23T15:42:58.838Z,28.40
2017-07-23T15:45:26.646Z,28.28
2017-07-23T15:47:54.907Z,28.26
2017-07-23T15:50:22.581Z,28.61
2017-07-23T15:52:51.412Z,28.98
2017-07-23T15:55:19.023Z,29.21
2017-07-23T15:57:46.693Z,29.52
2017-07-23T16:00:15.254Z,29.53
2017-07-23T16:02:42.893Z,30.25
2017-07-23T16:05:10.500Z,30.26
2017-07-23T16:07:38.113Z,30.54
2017-07-23T16:10:05.698Z,30.17
2017-07-23T16:12:33.314Z,30.23
2017-07-23T16:15:00.971Z,31.33
2017-07-23T16:17:28.572Z,31.17
2017-07-23T16:19:56.181Z,31.33
2017-07-23T16:22:24.410Z,30.75
2017-07-23T16:24:55.023Z,30.69
2017-07-23T16:27:22.631Z,30.91
2017-07-23T16:29:51.082Z,30.39
2017-07-23T16:32:18.665Z,30.54
2017-07-23T16:34:47.192Z,30.22
2017-07-23T16:37:14.725Z,30.39
2017-07-23T16:39:42.391Z,30.08
2017-07-23T16:42:10.020Z,29.64
2017-07-23T16:44:37.618Z,29.75
2017-07-23T16:47:05.273Z,29.38
2017-07-23T16:49:33.383Z,29.25
2017-07-23T16:52:00.969Z,29.24
2017-07-23T16:54:28.839Z,29.30
2017-07-23T16:56:57.233Z,29.05
2017-07-23T16:59:24.854Z,29.44
2017-07-23T17:01:52.664Z,29.54
2017-07-23T17:04:21.134Z,29.56
2017-07-23T17:06:49.483Z,29.84
2017-07-23T17:09:17.202Z,30.63
2017-07-23T17:11:45.526Z,31.56
2017-07-23T17:14:15.938Z,31.33
2017-07-23T17:16:48.832Z,31.86
2017-07-23T17:19:16.557Z,32.65
2017-07-23T17:21:44.319Z,33.38
2017-07-23T17:27:37.629Z,34.76
2017-07-23T17:30:08.403Z,35.19
2017-07-23T17:32:40.576Z,35.74
2017-07-23T17:35:08.881Z,36.03
2017-07-23T17:37:38.063Z,36.45
2017-07-23T17:40:08.089Z,36.66
2017-07-23T17:42:38.545Z,36.79
2017-07-23T17:45:06.465Z,37.12
2017-07-23T17:47:35.767Z,37.58
2017-07-23T17:50:06.033Z,38.01
2017-07-23T17:52:34.080Z,38.77
2017-07-23T17:55:04.245Z,38.81
2017-07-23T17:57:32.698Z,39.17
2017-07-23T18:00:00.430Z,39.28
2017-07-23T18:02:29.162Z,39.42
2017-07-23T18:04:58.755Z,40.31
2017-07-23T18:07:28.096Z,40.76
2017-07-23T18:09:59.651Z,41.19
2017-07-23T18:12:30.953Z,41.58
2017-07-23T18:14:59.900Z,42.17
2017-07-23T18:17:28.625Z,42.67
2017-07-23T18:19:59.064Z,42.69
2017-07-23T18:25:51.928Z,42.39
2017-07-23T18:28:22.189Z,42.82
2017-07-23T18:30:50.215Z,43.16
2017-07-23T18:33:20.120Z,42.79
2017-07-23T18:35:49.010Z,42.79
2017-07-23T18:38:25.898Z,42.29
2017-07-23T18:40:54.973Z,42.30
2017-07-23T18:43:22.856Z,42.42
2017-07-23T18:45:53.775Z,42.72
2017-07-23T18:48:21.966Z,42.27
2017-07-23T18:50:50.681Z,42.29
2017-07-23T18:53:18.706Z,43.40
2017-07-23T18:55:46.651Z,43.59
2017-07-23T18:58:15.701Z,43.63
2017-07-23T19:00:43.686Z,43.41
2017-07-23T19:03:13.166Z,43.55
2017-07-23T19:05:42.384Z,43.44
2017-07-23T19:08:10.377Z,43.59
2017-07-23T19:10:40.163Z,43.39
2017-07-23T19:13:08.372Z,42.93
2017-07-23T19:15:37.265Z,42.69
2017-07-23T19:18:05.221Z,42.56
2017-07-23T19:20:33.242Z,42.19
2017-07-23T19:23:01.380Z,42.05
2017-07-23T19:25:29.639Z,41.86
2017-07-23T19:27:57.596Z,41.63
2017-07-23T19:30:25.620Z,41.98
2017-07-23T19:32:53.734Z,41.78
2017-07-23T19:35:21.790Z,42.23
2017-07-23T19:37:52.057Z,42.72
2017-07-23T19:40:19.849Z,42.63
2017-07-23T19:42:47.629Z,42.54
2017-07-23T19:45:15.361Z,42.48
2017-07-23T19:47:44.026Z,42.75
2017-07-23T19:50:12.616Z,42.25
2017-07-23T19:52:41.110Z,42.85
2017-07-23T19:55:08.699Z,42.83
2017-07-23T19:57:36.990Z,42.56
2017-07-23T20:00:11.798Z,42.25
2017-07-23T20:02:39.510Z,42.19
2017-07-23T20:05:07.505Z,42.46
2017-07-23T20:07:35.169Z,43.12
2017-07-23T20:10:03.006Z,42.51
2017-07-23T20:12:30.769Z,42.85
2017-07-23T20:14:58.415Z,43.20
2017-07-23T20:17:27.090Z,43.34
2017-07-23T20:19:54.796Z,43.72
2017-07-23T20:22:22.453Z,43.83
2017-07-23T20:24:50.135Z,44.08
2017-07-23T20:27:18.377Z,43.98
2017-07-23T20:29:46.039Z,44.62
2017-07-23T20:32:13.672Z,44.66
2017-07-23T20:34:41.319Z,45.29
2017-07-23T20:37:20.128Z,44.78
2017-07-23T20:39:50.804Z,45.58
2017-07-23T20:42:26.127Z,45.76
2017-07-23T20:44:54.520Z,45.64
2017-07-23T20:47:26.758Z,45.87
2017-07-23T20:49:54.421Z,45.94
2017-07-23T20:52:22.405Z,45.58
2017-07-23T20:54:50.099Z,45.77
2017-07-23T20:57:17.768Z,45.61
2017-07-23T20:59:45.427Z,45.44
2017-07-23T21:02:13.036Z,45.37
2017-07-23T21:04:41.350Z,45.36
2017-07-23T21:07:09.122Z,45.36
2017-07-23T21:09:36.769Z,45.59
2017-07-23T21:12:04.497Z,45.51
2017-07-23T21:14:32.133Z,45.85
2017-07-23T21:16:59.768Z,45.49
2017-07-23T21:19:27.434Z,45.67
2017-07-23T21:21:55.059Z,45.42
2017-07-23T21:24:22.733Z,45.12
2017-07-23T21:26:50.587Z,45.32
2017-07-23T21:29:18.265Z,46.03
2017-07-23T21:31:46.336Z,46.56
2017-07-23T21:34:13.951Z,46.85
2017-07-23T21:36:41.526Z,47.34
2017-07-23T21:39:09.297Z,47.32
2017-07-23T21:41:36.968Z,47.00
2017-07-23T21:44:04.592Z,47.43
2017-07-23T21:46:33.173Z,47.64
2017-07-23T21:49:01.890Z,47.57
2017-07-23T21:51:29.741Z,47.17
2017-07-23T21:53:57.422Z,47.76
2017-07-23T21:56:25.182Z,48.02
2017-07-23T21:58:52.816Z,47.84
2017-07-23T22:01:20.462Z,48.33
2017-07-23T22:03:48.100Z,48.83
2017-07-23T22:06:15.872Z,49.70
2017-07-23T22:08:43.521Z,50.75
2017-07-23T22:11:11.081Z,49.95
2017-07-23T22:13:38.749Z,49.69
2017-07-23T22:16:06.431Z,49.16
2017-07-23T22:18:34.022Z,49.54
2017-07-23T22:21:01.814Z,49.52
2017-07-23T22:23:29.443Z,49.54
2017-07-23T22:25:57.063Z,50.13
2017-07-23T22:28:24.696Z,50.02
2017-07-23T22:30:52.356Z,49.95
2017-07-23T22:33:20.072Z,49.97
2017-07-23T22:35:47.743Z,50.00
2017-07-23T22:38:15.382Z,49.52
2017-07-23T22:40:43.009Z,49.06
2017-07-23T22:43:10.562Z,49.37
2017-07-23T22:45:38.160Z,49.17
2017-07-23T22:48:05.801Z,48.96
2017-07-23T22:50:33.409Z,49.20
2017-07-23T22:53:01.047Z,49.08
2017-07-23T22:55:28.674Z,48.59
2017-07-23T22:57:56.291Z,48.38
2017-07-23T23:00:23.959Z,48.93
2017-07-23T23:02:51.628Z,49.06
2017-07-23T23:05:19.174Z,49.57
2017-07-23T23:07:46.781Z,49.83
2017-07-23T23:10:15.330Z,50.29
2017-07-23T23:12:42.944Z,50.30
2017-07-23T23:15:10.666Z,50.37
2017-07-23T23:17:38.853Z,50.73
2017-07-23T23:20:06.911Z,50.86
2017-07-23T23:22:34.519Z,51.06
2017-07-23T23:25:02.154Z,51.20
2017-07-23T23:27:29.933Z,51.12
2017-07-23T23:29:58.288Z,51.21
2017-07-23T23:32:25.926Z,51.29
2017-07-23T23:34:53.542Z,51.71
2017-07-23T23:37:21.318Z,51.65
2017-07-23T23:39:48.939Z,52.23
2017-07-23T23:42:16.914Z,52.32
2017-07-23T23:44:44.681Z,52.07
2017-07-23T23:47:12.476Z,52.17
2017-07-23T23:49:40.148Z,52.31
2017-07-23T23:52:08.896Z,52.21
2017-07-23T23:54:36.501Z,53.00
2017-07-23T23:57:04.100Z,52.75
2017-07-23T23:59:31.771Z,53.28
